KHLB/HLB METAR and TAF weather

Enter ICAO airport designator
Station Type Date Time Source
KHLB METAR 2019/08/18 19:15 UTC NOAA

KHLB 181915Z AUTO VRB05G11KT 10SM CLR 32/21 A2996 RMK A01


Station Type Date Time Source
KHLB Decoded METAR 2019/08/18 19:15 UTC NOAA

Station name not available
Aug 18, 2019 - 03:15 PM EDT / 2019.08.18 1915 UTC
Wind: Variable at 6 MPH (5 KT) gusting to 13 MPH (11 KT):0
Visibility: 10 mile(s):0
Sky conditions: clear
Temperature: 89 F (32 C)
Dew Point: 69 F (21 C)
Relative Humidity: 52%
Pressure (altimeter): 29.96 in. Hg (1014 hPa)
ob: KHLB 181915Z AUTO VRB05G11KT 10SM CLR 32/21 A2996 RMK A01
cycle: 19

Station Type Date Time Source
KHLB TAF UTC NOAA

Error!

Example: see airport list